Terminal Aerodrome Forecast
Issued by NWS St Louis, MO

Home | Current Version | Previous Version | Text Only | Print | Product List | Glossary On
Versions: 1 2 3 4 5 6 7 8 9 10 11 12 13 14
818
FTUS43 KLSX 062320
TAFCOU
TAF
KCOU 062320Z 0700/0724 25007KT P6SM SKC
     FM070600 21009KT P6SM BKN250
     FM071600 27012KT P6SM BKN100
     FM072000 29017G27KT P6SM SCT050 OVC100=

USA.gov is the U.S. government's official web portal to all federal, state and local government web resources and services.